Reynosa, TAM, Mexico
Current Conditions -  °F | °C
As of 3:42 PM on Thursday 27 Nov 2014 (Local Time) from MMRX Reporting Station
Few Clouds Few Clouds  
Wind Chill: 73°   Ceiling: Unl
Heat Index: 73°   Visibility: 10mi
Dew Point: 45°   Wind: 9mph
Humidity: 36%   Direction: 140°SE
Pressure: 30.32"   Gusts: NA
Location:  26.08°N, 98.28°W
Report Text: MMRX 272142Z 14008KT 10SM FEW030 FEW230 23/07 A3032 RMK 8/502 HZY FU
Loading
Personal Weather Stations






























Interactive Weather Map New forecast layout! Learn more

10-Day Weather Forecast

Advertisements
Track Severe Weather on mobile